createdAt,value
2022-09-28T00:02:35.440Z,8.00
2022-09-28T00:05:37.092Z,8.00
2022-09-28T00:08:38.688Z,7.90
2022-09-28T00:11:46.062Z,7.90
2022-09-28T00:14:47.734Z,7.90
2022-09-28T00:17:49.360Z,7.90
2022-09-28T00:21:01.188Z,7.90
2022-09-28T00:24:14.944Z,7.80
2022-09-28T00:27:17.992Z,7.80
2022-09-28T00:30:19.671Z,7.80
2022-09-28T00:33:21.251Z,7.80
2022-09-28T00:36:23.782Z,7.80
2022-09-28T00:39:31.464Z,7.80
2022-09-28T00:42:33.090Z,7.80
2022-09-28T00:45:34.732Z,7.80
2022-09-28T00:48:40.467Z,7.80
2022-09-28T00:51:44.437Z,7.80
2022-09-28T00:54:47.703Z,7.70
2022-09-28T00:57:55.128Z,7.80
2022-09-28T01:00:58.771Z,7.70
2022-09-28T01:04:01.743Z,7.80
2022-09-28T01:07:03.855Z,7.80
2022-09-28T01:10:09.428Z,7.80
2022-09-28T01:13:12.841Z,7.80
2022-09-28T01:16:39.420Z,7.80
2022-09-28T01:19:59.790Z,7.80
2022-09-28T01:23:27.687Z,7.80
2022-09-28T01:26:57.096Z,7.80
2022-09-28T01:30:01.868Z,7.80
2022-09-28T01:33:15.512Z,7.80
2022-09-28T01:36:37.889Z,7.80
2022-09-28T01:39:48.439Z,7.80
2022-09-28T01:42:59.193Z,7.80
2022-09-28T01:46:12.189Z,7.80
2022-09-28T01:49:26.968Z,7.80
2022-09-28T01:52:41.540Z,7.70
2022-09-28T01:55:51.613Z,7.70
2022-09-28T01:59:02.627Z,7.70
2022-09-28T02:02:16.348Z,7.70
2022-09-28T02:05:32.194Z,7.70
2022-09-28T02:08:38.416Z,7.60
2022-09-28T02:11:45.594Z,7.70
2022-09-28T02:14:49.780Z,7.70
2022-09-28T02:17:51.985Z,7.70
2022-09-28T02:21:01.205Z,7.70
2022-09-28T02:24:21.553Z,7.70
2022-09-28T02:27:37.748Z,7.70
2022-09-28T02:30:42.270Z,7.70
2022-09-28T02:33:44.683Z,7.60
2022-09-28T02:36:46.982Z,7.60
2022-09-28T02:39:48.587Z,7.60
2022-09-28T02:43:23.814Z,7.60
2022-09-28T02:46:44.947Z,7.70
2022-09-28T02:50:03.201Z,7.60
2022-09-28T02:53:37.436Z,7.60
2022-09-28T02:57:11.150Z,7.60
2022-09-28T03:00:20.005Z,7.70
2022-09-28T03:03:40.643Z,7.70
2022-09-28T03:06:45.057Z,7.60
2022-09-28T03:09:53.961Z,7.60
2022-09-28T03:12:56.903Z,7.60
2022-09-28T03:16:13.783Z,7.60
2022-09-28T03:19:19.147Z,7.70
2022-09-28T03:22:20.729Z,7.70
2022-09-28T03:25:22.352Z,7.70
2022-09-28T03:28:24.005Z,7.70
2022-09-28T03:31:25.904Z,7.70
2022-09-28T03:34:27.620Z,7.60
2022-09-28T03:37:29.258Z,7.60
2022-09-28T03:40:30.934Z,7.60
2022-09-28T03:43:32.572Z,7.70
2022-09-28T03:46:34.226Z,7.70
2022-09-28T03:49:36.053Z,7.70
2022-09-28T03:52:37.676Z,7.60
2022-09-28T03:55:39.333Z,7.60
2022-09-28T03:58:41.299Z,7.60
2022-09-28T04:01:43.166Z,7.70
2022-09-28T04:04:44.825Z,7.60
2022-09-28T04:07:46.421Z,7.60
2022-09-28T04:10:48.043Z,7.60
2022-09-28T04:13:50.061Z,7.70
2022-09-28T04:16:54.717Z,7.60
2022-09-28T04:19:57.657Z,7.70
2022-09-28T04:22:59.271Z,7.70
2022-09-28T04:26:00.963Z,7.70
2022-09-28T04:29:17.853Z,7.70
2022-09-28T04:32:19.580Z,7.70
2022-09-28T04:35:21.255Z,7.80
2022-09-28T04:38:41.566Z,7.80
2022-09-28T04:41:47.265Z,7.80
2022-09-28T04:44:48.894Z,7.80
2022-09-28T04:47:50.532Z,7.70
2022-09-28T04:51:00.391Z,7.80
2022-09-28T04:54:02.025Z,7.70
2022-09-28T04:57:05.884Z,7.70
2022-09-28T05:00:08.937Z,7.70
2022-09-28T05:03:10.687Z,7.80
2022-09-28T05:06:16.024Z,7.70
2022-09-28T05:09:17.743Z,7.80
2022-09-28T05:12:19.535Z,7.80
2022-09-28T05:15:21.172Z,7.80
2022-09-28T05:18:22.985Z,7.80
2022-09-28T05:21:26.332Z,7.80
2022-09-28T05:24:27.945Z,7.80
2022-09-28T05:27:29.817Z,7.80
2022-09-28T05:30:31.590Z,7.80
2022-09-28T05:33:34.183Z,7.80
2022-09-28T05:36:36.774Z,7.80
2022-09-28T05:39:38.419Z,7.80
2022-09-28T05:42:40.866Z,7.80
2022-09-28T05:45:42.647Z,7.80
2022-09-28T05:48:44.303Z,7.90
2022-09-28T05:51:45.967Z,7.80
2022-09-28T05:54:47.869Z,7.80
2022-09-28T05:57:49.516Z,7.80
2022-09-28T06:00:56.045Z,7.80
2022-09-28T06:03:57.778Z,7.70
2022-09-28T06:06:59.867Z,7.70
2022-09-28T06:10:01.448Z,7.70
2022-09-28T06:13:03.557Z,7.70
2022-09-28T06:16:07.600Z,7.70
2022-09-28T06:19:09.783Z,7.70
2022-09-28T06:22:11.417Z,7.60
2022-09-28T06:25:13.037Z,7.70
2022-09-28T06:28:15.618Z,7.70
2022-09-28T06:31:17.898Z,7.60
2022-09-28T06:34:19.548Z,7.70
2022-09-28T06:37:21.178Z,7.70
2022-09-28T06:40:23.663Z,7.60
2022-09-28T06:43:25.651Z,7.70
2022-09-28T06:46:27.344Z,7.70
2022-09-28T06:49:30.253Z,7.60
2022-09-28T06:52:31.872Z,7.80
2022-09-28T06:55:34.345Z,7.80
2022-09-28T06:58:35.929Z,7.80
2022-09-28T07:01:39.731Z,7.90
2022-09-28T07:04:42.900Z,7.90
2022-09-28T07:07:44.704Z,7.90
2022-09-28T07:10:48.452Z,7.90
2022-09-28T07:13:51.409Z,7.90
2022-09-28T07:17:12.330Z,7.90
2022-09-28T07:20:19.217Z,7.90
2022-09-28T07:23:22.521Z,7.90
2022-09-28T07:26:25.573Z,7.90
2022-09-28T07:29:27.147Z,7.90
2022-09-28T07:32:28.767Z,7.90
2022-09-28T07:35:30.517Z,7.90
2022-09-28T07:38:33.620Z,7.90
2022-09-28T07:41:35.958Z,8.00
2022-09-28T07:44:40.867Z,8.10
2022-09-28T07:47:43.140Z,8.20
2022-09-28T07:50:53.401Z,8.30
2022-09-28T07:53:55.095Z,8.40
2022-09-28T07:56:57.005Z,8.50
2022-09-28T08:00:00.140Z,8.60
2022-09-28T08:03:03.148Z,8.70
2022-09-28T08:06:10.034Z,8.70
2022-09-28T08:09:18.035Z,8.60
2022-09-28T08:12:19.759Z,8.60
2022-09-28T08:15:21.491Z,8.60
2022-09-28T08:18:23.820Z,8.60
2022-09-28T08:21:44.129Z,8.60
2022-09-28T08:24:46.916Z,8.60
2022-09-28T08:27:49.490Z,8.60
2022-09-28T08:30:51.599Z,8.70
2022-09-28T08:33:54.298Z,8.80
2022-09-28T08:36:59.120Z,8.90
2022-09-28T08:40:00.954Z,8.90
2022-09-28T08:43:10.212Z,9.00
2022-09-28T08:46:13.375Z,9.00
2022-09-28T08:49:41.865Z,9.00
2022-09-28T08:52:47.948Z,9.10
2022-09-28T08:55:49.949Z,9.30
2022-09-28T08:58:57.007Z,9.60
2022-09-28T09:02:03.549Z,9.70
2022-09-28T09:05:17.023Z,9.80
2022-09-28T09:08:52.287Z,9.90
2022-09-28T09:12:13.339Z,10.00
2022-09-28T09:15:21.327Z,9.90
2022-09-28T09:18:40.922Z,10.00
2022-09-28T09:22:09.857Z,10.00
2022-09-28T09:25:21.298Z,10.10
2022-09-28T09:28:56.788Z,10.20
2022-09-28T09:32:20.033Z,10.20
2022-09-28T09:35:37.072Z,10.20
2022-09-28T09:39:07.419Z,10.10
2022-09-28T09:42:09.014Z,10.00
2022-09-28T09:45:19.586Z,9.90
2022-09-28T09:48:29.785Z,9.80
2022-09-28T09:52:07.705Z,9.80
2022-09-28T09:55:30.061Z,9.80
2022-09-28T09:58:37.639Z,9.80
2022-09-28T10:01:41.345Z,9.80
2022-09-28T10:04:46.622Z,9.80
2022-09-28T10:08:03.127Z,9.80
2022-09-28T10:11:14.500Z,9.80
2022-09-28T10:14:19.989Z,9.80
2022-09-28T10:17:26.815Z,9.70
2022-09-28T10:20:31.909Z,9.70
2022-09-28T10:23:37.845Z,9.70
2022-09-28T10:26:44.394Z,9.80
2022-09-28T10:30:00.719Z,9.80
2022-09-28T10:33:29.375Z,9.90
2022-09-28T10:36:38.348Z,9.90
2022-09-28T10:39:45.552Z,10.00
2022-09-28T10:42:47.184Z,10.00
2022-09-28T10:45:51.566Z,10.10
2022-09-28T10:49:03.248Z,10.20
2022-09-28T10:52:08.511Z,10.20
2022-09-28T10:55:30.507Z,10.30
2022-09-28T10:58:41.844Z,10.30
2022-09-28T11:01:43.897Z,10.40
2022-09-28T11:04:51.561Z,10.60
2022-09-28T11:07:55.437Z,10.70
2022-09-28T11:11:11.946Z,10.80
2022-09-28T11:14:38.418Z,10.80
2022-09-28T11:17:44.114Z,10.70
2022-09-28T11:20:45.821Z,10.80
2022-09-28T11:24:05.737Z,11.00
2022-09-28T11:27:20.542Z,11.00
2022-09-28T11:30:28.000Z,11.10
2022-09-28T11:33:36.280Z,11.20
2022-09-28T11:36:46.185Z,11.20
2022-09-28T11:40:26.028Z,11.30
2022-09-28T11:43:46.208Z,11.40
2022-09-28T11:47:08.268Z,11.50
2022-09-28T11:50:34.620Z,11.50
2022-09-28T11:53:43.828Z,11.50
2022-09-28T11:56:49.023Z,11.40
2022-09-28T12:00:27.901Z,11.20
2022-09-28T12:03:42.689Z,11.00
2022-09-28T12:06:50.728Z,10.90
2022-09-28T12:10:16.891Z,10.90
2022-09-28T12:13:23.180Z,10.90
2022-09-28T12:17:05.656Z,10.90
2022-09-28T12:20:32.651Z,11.00
2022-09-28T12:23:37.925Z,11.00
2022-09-28T12:26:51.937Z,11.00
2022-09-28T12:30:05.292Z,10.90
2022-09-28T12:33:15.301Z,10.80
2022-09-28T12:36:28.421Z,10.70
2022-09-28T12:39:57.868Z,10.70
2022-09-28T12:43:28.811Z,10.60
2022-09-28T12:46:42.976Z,10.70
2022-09-28T12:53:52.927Z,10.80
2022-09-28T12:57:21.956Z,10.90
2022-09-28T13:00:29.631Z,11.00
2022-09-28T13:04:01.518Z,11.00
2022-09-28T13:07:10.052Z,10.90
2022-09-28T13:10:36.172Z,10.90
2022-09-28T13:13:52.921Z,10.80
2022-09-28T13:17:08.773Z,10.70
2022-09-28T13:20:16.856Z,10.50
2022-09-28T13:23:38.940Z,10.40
2022-09-28T13:26:45.872Z,10.40
2022-09-28T13:29:50.242Z,10.40
2022-09-28T13:32:54.165Z,10.50
2022-09-28T13:35:56.604Z,10.50
2022-09-28T13:38:59.818Z,10.60
2022-09-28T13:42:02.628Z,10.50
2022-09-28T13:45:22.704Z,10.60
2022-09-28T13:48:48.417Z,10.60
2022-09-28T13:52:02.804Z,10.70
2022-09-28T13:55:23.065Z,10.80
2022-09-28T13:58:51.418Z,10.70
2022-09-28T14:02:06.609Z,10.80
2022-09-28T14:05:25.012Z,10.80
2022-09-28T14:08:55.553Z,10.80
2022-09-28T14:11:57.175Z,10.80
2022-09-28T14:14:59.930Z,10.80
2022-09-28T14:18:32.697Z,10.80
2022-09-28T14:22:07.579Z,10.80
2022-09-28T14:25:30.093Z,10.80
2022-09-28T14:28:44.365Z,10.80
2022-09-28T14:31:46.209Z,10.80
2022-09-28T14:35:04.518Z,10.90
2022-09-28T14:38:35.887Z,11.00
2022-09-28T14:41:41.788Z,11.00
2022-09-28T14:45:06.440Z,11.00
2022-09-28T14:48:17.913Z,10.90
2022-09-28T14:51:33.027Z,10.90
2022-09-28T14:54:55.562Z,10.90
2022-09-28T14:57:58.651Z,10.90
2022-09-28T15:01:06.314Z,10.90
2022-09-28T15:04:13.141Z,10.90
2022-09-28T15:07:30.176Z,10.80
2022-09-28T15:10:34.181Z,10.80
2022-09-28T15:13:36.150Z,10.70
2022-09-28T15:16:37.945Z,10.70
2022-09-28T15:20:12.020Z,10.70
2022-09-28T15:23:36.489Z,10.70
2022-09-28T15:26:38.119Z,10.60
2022-09-28T15:29:40.946Z,10.60
2022-09-28T15:32:42.577Z,10.60
2022-09-28T15:35:57.151Z,10.60
2022-09-28T15:39:30.417Z,10.50
2022-09-28T15:42:38.173Z,10.50
2022-09-28T15:45:40.521Z,10.40
2022-09-28T15:48:57.136Z,10.30
2022-09-28T15:52:02.978Z,10.30
2022-09-28T15:55:24.867Z,10.20
2022-09-28T15:58:27.294Z,10.20
2022-09-28T16:01:36.552Z,10.20
2022-09-28T16:04:48.116Z,10.20
2022-09-28T16:07:56.035Z,10.20
2022-09-28T16:11:12.802Z,10.20
2022-09-28T16:14:21.148Z,10.20
2022-09-28T16:17:34.888Z,10.20
2022-09-28T16:20:39.661Z,10.20
2022-09-28T16:23:42.406Z,10.20
2022-09-28T16:26:44.032Z,10.20
2022-09-28T16:30:24.275Z,10.10
2022-09-28T16:33:43.835Z,10.10
2022-09-28T16:36:48.849Z,10.10
2022-09-28T16:39:50.445Z,10.10
2022-09-28T16:42:56.477Z,10.00
2022-09-28T16:46:09.204Z,9.90
2022-09-28T16:49:23.668Z,9.90
2022-09-28T16:52:44.165Z,9.80
2022-09-28T16:55:48.423Z,9.70
2022-09-28T16:58:50.601Z,9.80
2022-09-28T17:01:52.324Z,9.70
2022-09-28T17:04:54.352Z,9.70
2022-09-28T17:08:01.601Z,9.60
2022-09-28T17:11:15.806Z,9.60
2022-09-28T17:14:19.477Z,9.60
2022-09-28T17:17:21.181Z,9.60
2022-09-28T17:20:27.280Z,9.60
2022-09-28T17:23:28.953Z,9.60
2022-09-28T17:26:31.721Z,9.60
2022-09-28T17:29:33.386Z,9.60
2022-09-28T17:32:37.624Z,9.60
2022-09-28T17:35:39.919Z,9.60
2022-09-28T17:38:42.814Z,9.60
2022-09-28T17:41:45.043Z,9.60
2022-09-28T17:44:46.632Z,9.60
2022-09-28T17:47:48.404Z,9.50
2022-09-28T17:50:50.626Z,9.80
2022-09-28T17:53:54.290Z,9.50
2022-09-28T17:56:56.066Z,9.50
2022-09-28T17:59:58.308Z,9.40
2022-09-28T18:02:59.990Z,9.40
2022-09-28T18:06:06.407Z,9.40
2022-09-28T18:09:24.645Z,9.40
2022-09-28T18:12:26.631Z,9.40
2022-09-28T18:15:28.244Z,9.40
2022-09-28T18:18:38.332Z,9.40
2022-09-28T18:21:39.913Z,9.40
2022-09-28T18:24:41.488Z,9.30
2022-09-28T18:27:43.165Z,9.40
2022-09-28T18:30:45.558Z,9.30
2022-09-28T18:33:48.425Z,9.30
2022-09-28T18:36:50.216Z,9.30
2022-09-28T18:39:52.303Z,9.20
2022-09-28T18:42:53.980Z,9.20
2022-09-28T18:45:56.201Z,9.20
2022-09-28T18:48:57.837Z,9.10
2022-09-28T18:51:59.497Z,9.00
2022-09-28T18:55:01.081Z,9.00
2022-09-28T18:58:02.690Z,9.00
2022-09-28T19:01:32.180Z,8.90
2022-09-28T19:04:40.614Z,8.90
2022-09-28T19:07:42.245Z,8.90
2022-09-28T19:10:44.527Z,8.70
2022-09-28T19:13:46.184Z,8.80
2022-09-28T19:16:47.886Z,8.40
2022-09-28T19:19:54.159Z,8.90
2022-09-28T19:22:59.290Z,9.40
2022-09-28T19:26:06.365Z,9.10
2022-09-28T19:29:09.267Z,8.80
2022-09-28T19:32:12.693Z,8.60
2022-09-28T19:35:14.562Z,8.80
2022-09-28T19:38:18.404Z,8.70
2022-09-28T19:41:43.415Z,8.70
2022-09-28T19:44:46.434Z,9.00
2022-09-28T19:47:49.760Z,8.60
2022-09-28T19:50:59.638Z,8.60
2022-09-28T19:54:02.304Z,8.60
2022-09-28T19:57:14.585Z,8.60
2022-09-28T20:00:16.802Z,8.60
2022-09-28T20:03:18.717Z,8.50
2022-09-28T20:06:20.416Z,8.60
2022-09-28T20:09:22.183Z,8.50
2022-09-28T20:12:23.814Z,8.40
2022-09-28T20:15:27.124Z,8.50
2022-09-28T20:18:34.625Z,8.00
2022-09-28T20:21:36.549Z,8.60
2022-09-28T20:24:38.391Z,8.60
2022-09-28T20:27:40.153Z,8.30
2022-09-28T20:30:46.342Z,8.30
2022-09-28T20:33:48.389Z,8.40
2022-09-28T20:36:52.849Z,8.50
2022-09-28T20:40:01.801Z,8.60
2022-09-28T20:43:08.138Z,8.30
2022-09-28T20:46:13.235Z,8.70
2022-09-28T20:49:15.076Z,8.30
2022-09-28T20:52:17.185Z,8.00
2022-09-28T20:55:19.007Z,8.70
2022-09-28T20:58:20.754Z,8.70
2022-09-28T21:01:27.878Z,8.30
2022-09-28T21:04:29.730Z,8.00
2022-09-28T21:07:31.575Z,8.00
2022-09-28T21:10:33.669Z,8.10
2022-09-28T21:13:47.061Z,8.00
2022-09-28T21:16:48.815Z,7.90
2022-09-28T21:19:50.513Z,7.10
2022-09-28T21:22:52.182Z,7.80
2022-09-28T21:26:24.598Z,7.50
2022-09-28T21:29:26.341Z,7.70
2022-09-28T21:32:28.833Z,7.80
2022-09-28T21:35:30.550Z,7.70
2022-09-28T21:38:32.838Z,7.70
2022-09-28T21:41:34.614Z,7.70
2022-09-28T21:44:36.236Z,7.70
2022-09-28T21:47:37.997Z,7.70
2022-09-28T21:50:39.794Z,7.80
2022-09-28T21:53:41.491Z,7.80
2022-09-28T21:56:43.270Z,7.80
2022-09-28T21:59:45.129Z,7.80
2022-09-28T22:02:46.841Z,7.80
2022-09-28T22:05:52.042Z,7.80
2022-09-28T22:08:53.898Z,7.80
2022-09-28T22:11:55.497Z,7.80
2022-09-28T22:14:57.148Z,7.80
2022-09-28T22:17:58.798Z,7.80
2022-09-28T22:21:09.940Z,7.80
2022-09-28T22:24:11.614Z,7.80
2022-09-28T22:27:13.602Z,7.80
2022-09-28T22:30:15.300Z,7.80
2022-09-28T22:33:16.885Z,7.80
2022-09-28T22:36:19.872Z,7.80
2022-09-28T22:39:21.472Z,7.80
2022-09-28T22:42:23.102Z,7.80
2022-09-28T22:45:24.741Z,7.80
2022-09-28T22:48:26.389Z,7.80
2022-09-28T22:51:29.681Z,7.80
2022-09-28T22:54:31.641Z,7.70
2022-09-28T22:57:33.246Z,7.70
2022-09-28T23:00:34.844Z,7.70
2022-09-28T23:03:36.962Z,7.60
2022-09-28T23:06:38.566Z,7.60
2022-09-28T23:09:40.174Z,7.50
2022-09-28T23:12:41.885Z,7.50
2022-09-28T23:15:43.538Z,7.50
2022-09-28T23:18:45.692Z,7.50
2022-09-28T23:21:47.664Z,7.40
2022-09-28T23:24:49.242Z,7.40
2022-09-28T23:27:51.304Z,7.30
2022-09-28T23:30:53.495Z,7.30
2022-09-28T23:34:04.873Z,7.30
2022-09-28T23:37:06.502Z,7.20
2022-09-28T23:40:08.350Z,7.10
2022-09-28T23:43:09.949Z,7.20
2022-09-28T23:46:11.731Z,7.00
2022-09-28T23:49:13.438Z,7.10
2022-09-28T23:52:15.059Z,7.40
2022-09-28T23:55:16.836Z,7.00
2022-09-28T23:58:18.585Z,6.90
